Time;durP1;ratioP1;P1;durP2;ratioP2;P2;SDS_P1;SDS_P2;PMS_P1;PMS_P2;Temp;Humidity;BMP_temperature;BMP_pressure;BME280_temperature;BME280_humidity;BME280_pressure;Samples;Min_cycle;Max_cycle;Signal;HPM_P1;HPM_P2
2022/09/12 00:00:37;;;;;;;;;;;;;;;27.81;37.58;100113.50;5047940;28;1076;-41
2022/09/12 00:03:03;;;;;;;;;;;;;;;27.85;37.35;100105.81;5050926;28;1104;-41
2022/09/12 00:05:29;;;;;;;;;;;;;;;27.79;37.37;100095.84;5050544;28;1053;-41
2022/09/12 00:07:55;;;;;;;;;;;;;;;27.82;37.09;100098.97;5049987;28;1223;-40
2022/09/12 00:10:20;;;;;;;;;;;;;;;27.81;36.95;100107.28;5047876;28;1898;-40
2022/09/12 00:12:45;;;;;;;;;;;;;;;27.77;37.49;100106.00;5048772;28;1451;-40
2022/09/12 00:15:11;;;;;;;;;;;;;;;27.73;37.63;100105.56;5046347;28;2330;-40
2022/09/12 00:17:36;;;;;;;;;;;;;;;27.80;37.19;100106.44;5052521;28;1226;-40
2022/09/12 00:20:03;;;;;;;;;;;;;;;27.79;37.28;100098.53;5049589;28;1186;-40
2022/09/12 00:22:28;;;;;;;;;;;;;;;27.77;38.01;100111.41;5049246;28;1333;-40
2022/09/12 00:24:53;;;;;;;;;;;;;;;27.91;37.77;100098.78;5050498;28;1223;-40
2022/09/12 00:27:19;;;;;;;;;;;;;;;27.81;37.69;100115.41;5050633;28;1021;-40
2022/09/12 00:29:44;;;;;;;;;;;;;;;27.76;37.37;100115.97;5056254;28;1977;-42
2022/09/12 00:32:09;;;;;;;;;;;;;;;27.73;38.21;100122.63;5050686;28;1024;-40
2022/09/12 00:34:35;;;;;;;;;;;;;;;27.83;37.94;100133.06;5054025;28;1087;-39
2022/09/12 00:37:00;;;;;;;;;;;;;;;27.91;37.87;100125.81;5045051;28;962;-40
2022/09/12 00:39:25;;;;;;;;;;;;;;;27.81;38.35;100124.31;5040934;28;888;-40
2022/09/12 00:41:51;;;;;;;;;;;;;;;27.83;38.41;100129.50;5037541;28;974;-40
2022/09/12 00:44:22;;;;;;;;;;;;;;;27.80;38.11;100136.16;5047765;28;1254;-40
2022/09/12 00:46:49;;;;;;;;;;;;;;;27.86;37.80;100135.34;5049453;28;2654;-40
2022/09/12 00:49:14;;;;;;;;;;;;;;;27.84;38.29;100140.13;5052228;28;1965;-40
2022/09/12 00:51:40;;;;;;;;;;;;;;;27.89;38.06;100152.22;5049744;28;1032;-40
2022/09/12 00:54:07;;;;;;;;;;;;;;;27.96;37.71;100166.59;5041246;28;1222;-40
2022/09/12 00:56:32;;;;;;;;;;;;;;;27.84;38.39;100177.16;5055345;28;1142;-40
2022/09/12 00:59:04;;;;;;;;;;;;;;;27.83;38.10;100184.41;5050242;28;938;-40
2022/09/12 01:01:30;;;;;;;;;;;;;;;27.88;38.05;100178.38;5036620;28;1575;-41
2022/09/12 01:03:55;;;;;;;;;;;;;;;27.84;38.24;100180.66;5050096;28;1025;-40
2022/09/12 01:06:21;;;;;;;;;;;;;;;27.84;38.42;100177.16;5048271;28;1175;-41
2022/09/12 01:08:47;;;;;;;;;;;;;;;27.80;38.23;100175.88;5051604;28;1894;-41
2022/09/12 01:11:12;;;;;;;;;;;;;;;27.85;38.16;100174.25;5039251;28;1429;-41
2022/09/12 01:13:37;;;;;;;;;;;;;;;27.85;38.10;100168.00;5054644;28;1036;-40
2022/09/12 01:16:03;;;;;;;;;;;;;;;27.85;38.13;100168.00;5040000;28;1824;-41
2022/09/12 01:18:44;;;;;;;;;;;;;;;27.81;38.60;100164.03;5048534;28;1124;-41
2022/09/12 01:21:33;;;;;;;;;;;;;;;27.76;38.47;100159.22;5051235;28;1076;-41
2022/09/12 01:24:08;;;;;;;;;;;;;;;27.85;38.60;100162.59;5042425;28;1393;-41
2022/09/12 01:26:36;;;;;;;;;;;;;;;27.90;38.56;100156.56;5041175;28;830;-40
2022/09/12 01:29:01;;;;;;;;;;;;;;;27.86;38.57;100158.88;5055678;28;1906;-41
2022/09/12 01:31:36;;;;;;;;;;;;;;;27.83;38.81;100151.13;5054238;28;1202;-40
2022/09/12 01:34:04;;;;;;;;;;;;;;;27.86;38.30;100148.06;5054383;28;1462;-40
2022/09/12 01:36:35;;;;;;;;;;;;;;;27.85;38.17;100154.47;5044575;28;969;-40
2022/09/12 01:39:00;;;;;;;;;;;;;;;27.77;38.82;100152.78;5047350;28;1041;-41
2022/09/12 01:41:25;;;;;;;;;;;;;;;27.77;38.25;100157.34;5045291;28;1017;-41
2022/09/12 01:43:58;;;;;;;;;;;;;;;27.90;38.33;100160.09;5050900;28;1012;-40
2022/09/12 01:46:25;;;;;;;;;;;;;;;27.81;38.17;100159.44;5048507;28;2430;-41
2022/09/12 01:48:55;;;;;;;;;;;;;;;27.81;38.53;100159.44;5051488;28;1894;-41
2022/09/12 01:51:25;;;;;;;;;;;;;;;27.83;38.34;100157.38;5046593;28;1006;-41
2022/09/12 01:53:51;;;;;;;;;;;;;;;27.84;37.90;100158.22;5047044;28;1080;-40
2022/09/12 01:56:22;;;;;;;;;;;;;;;27.83;38.64;100151.13;5054078;28;1029;-41
2022/09/12 01:59:06;;;;;;;;;;;;;;;27.84;38.18;100144.72;5042094;28;969;-41
2022/09/12 02:01:32;;;;;;;;;;;;;;;27.77;38.03;100150.09;5044157;28;982;-41
2022/09/12 02:04:08;;;;;;;;;;;;;;;27.89;37.78;100138.69;5037935;28;977;-40
2022/09/12 02:06:36;;;;;;;;;;;;;;;27.86;38.24;100129.94;5049881;28;966;-40
2022/09/12 02:09:18;;;;;;;;;;;;;;;27.87;38.06;100138.91;5047693;28;1965;-39
2022/09/12 02:11:43;;;;;;;;;;;;;;;27.84;38.42;100137.41;5050458;28;1064;-40
2022/09/12 02:14:10;;;;;;;;;;;;;;;27.81;38.26;100137.00;5048904;28;1037;-38
2022/09/12 02:16:37;;;;;;;;;;;;;;;27.92;38.07;100139.13;5048428;28;2410;-40
2022/09/12 02:19:04;;;;;;;;;;;;;;;27.82;38.38;100144.91;5053030;28;1218;-40
2022/09/12 02:21:31;;;;;;;;;;;;;;;27.83;38.29;100151.13;5051337;28;1294;-40
2022/09/12 02:23:57;;;;;;;;;;;;;;;27.85;38.31;100143.66;5051925;28;993;-40
2022/09/12 02:26:34;;;;;;;;;;;;;;;27.86;37.93;100140.75;5051114;28;1164;-40
2022/09/12 02:28:59;;;;;;;;;;;;;;;27.81;38.26;100147.81;5047793;28;1905;-40
2022/09/12 02:31:31;;;;;;;;;;;;;;;27.82;38.14;100146.78;5049273;28;1184;-40
2022/09/12 02:34:10;;;;;;;;;;;;;;;27.81;38.41;100147.81;5046304;28;982;-40
2022/09/12 02:36:48;;;;;;;;;;;;;;;27.79;38.03;100144.47;5035548;28;1164;-40
2022/09/12 02:39:18;;;;;;;;;;;;;;;27.77;38.28;100136.59;5051386;28;1017;-39
2022/09/12 02:41:44;;;;;;;;;;;;;;;27.85;38.16;100143.66;5050641;28;1148;-40
2022/09/12 02:44:09;;;;;;;;;;;;;;;27.89;37.68;100141.41;5056067;28;993;-39
2022/09/12 02:46:39;;;;;;;;;;;;;;;27.84;38.01;100137.41;5041799;28;1892;-40
2022/09/12 02:49:04;;;;;;;;;;;;;;;27.77;38.44;100141.97;5040476;28;2011;-40
2022/09/12 02:51:29;;;;;;;;;;;;;;;27.86;38.17;100156.16;5051962;28;1107;-40
2022/09/12 02:53:55;;;;;;;;;;;;;;;27.83;38.08;100167.34;5051295;28;982;-40
2022/09/12 02:56:22;;;;;;;;;;;;;;;27.80;37.68;100159.66;5046835;28;962;-41
2022/09/12 02:58:48;;;;;;;;;;;;;;;27.84;38.01;100152.81;5040352;28;1009;-40
2022/09/12 03:01:28;;;;;;;;;;;;;;;27.83;37.93;100154.69;5054330;28;968;-40
2022/09/12 03:04:19;;;;;;;;;;;;;;;27.82;38.08;100154.88;5044844;28;836;-41
2022/09/12 03:06:47;;;;;;;;;;;;;;;27.80;38.07;100155.09;5022374;28;1471;-39
2022/09/12 03:09:13;;;;;;;;;;;;;;;27.79;38.45;100150.72;5056256;28;1973;-40
2022/09/12 03:11:44;;;;;;;;;;;;;;;27.79;38.69;100153.44;5056704;28;1060;-41
2022/09/12 03:14:28;;;;;;;;;;;;;;;27.75;38.76;100154.84;5051542;28;1036;-40
2022/09/12 03:17:12;;;;;;;;;;;;;;;27.75;38.75;100146.75;5047490;28;2609;-40
2022/09/12 03:19:46;;;;;;;;;;;;;;;27.75;38.91;100147.59;5047148;28;1243;-40
2022/09/12 03:22:16;;;;;;;;;;;;;;;27.86;38.30;100146.16;5056246;28;1096;-41
2022/09/12 03:24:45;;;;;;;;;;;;;;;27.81;38.70;100139.72;5056497;28;1076;-41
2022/09/12 03:27:16;;;;;;;;;;;;;;;27.83;39.01;100129.50;5048302;28;1057;-41
2022/09/12 03:29:42;;;;;;;;;;;;;;;27.82;39.18;100125.16;5048047;28;1977;-41
2022/09/12 03:32:07;;;;;;;;;;;;;;;27.76;39.24;100118.69;5047139;28;1016;-42
2022/09/12 03:34:32;;;;;;;;;;;;;;;27.74;38.97;100113.47;5051511;28;934;-41
2022/09/12 03:36:58;;;;;;;;;;;;;;;27.80;39.07;100121.81;5054180;28;1074;-41
2022/09/12 03:39:25;;;;;;;;;;;;;;;27.72;39.00;100117.44;5051416;28;972;-41
2022/09/12 03:41:50;;;;;;;;;;;;;;;27.08;39.94;100123.75;5054921;28;1124;-41
2022/09/12 03:44:16;;;;;;;;;;;;;;;26.74;40.29;100107.28;5057480;28;1001;-41
2022/09/12 03:46:41;;;;;;;;;;;;;;;26.64;40.54;100104.94;5043289;28;2325;-42
2022/09/12 03:49:06;;;;;;;;;;;;;;;26.78;39.41;100096.94;5052353;28;1894;-40
2022/09/12 03:51:32;;;;;;;;;;;;;;;26.71;39.97;100096.88;5050767;28;1342;-41
2022/09/12 03:53:57;;;;;;;;;;;;;;;26.69;40.23;100087.34;5048736;28;937;-42
2022/09/12 03:56:22;;;;;;;;;;;;;;;26.71;39.87;100096.88;5051445;28;949;-42
2022/09/12 03:58:47;;;;;;;;;;;;;;;26.52;39.72;100099.25;5049212;28;1028;-41
2022/09/12 04:01:13;;;;;;;;;;;;;;;26.52;39.87;100101.94;5053598;28;1069;-42
2022/09/12 04:03:39;;;;;;;;;;;;;;;25.51;41.83;100116.97;5050126;28;1164;-41
2022/09/12 04:06:05;;;;;;;;;;;;;;;25.05;43.02;100116.16;5051942;28;977;-41
2022/09/12 04:08:30;;;;;;;;;;;;;;;24.65;44.01;100129.81;5046144;28;1297;-41
2022/09/12 04:11:05;;;;;;;;;;;;;;;24.62;43.98;100132.84;5057707;28;1910;-38
2022/09/12 04:13:30;;;;;;;;;;;;;;;24.25;45.05;100128.09;5057840;28;1084;-39
2022/09/12 04:15:59;;;;;;;;;;;;;;;24.59;44.20;100134.03;5049357;28;2047;-33
2022/09/12 04:18:24;;;;;;;;;;;;;;;24.72;44.27;100141.50;5043895;28;2417;-35
2022/09/12 04:20:49;;;;;;;;;;;;;;;24.83;43.56;100135.69;5040805;28;1159;-37
2022/09/12 04:23:15;;;;;;;;;;;;;;;24.60;44.03;100134.88;5051684;28;803;-38
2022/09/12 04:25:40;;;;;;;;;;;;;;;24.42;44.00;100136.84;5057807;28;954;-36
2022/09/12 04:28:06;;;;;;;;;;;;;;;24.24;44.11;100142.53;5055916;28;1270;-35
2022/09/12 04:30:32;;;;;;;;;;;;;;;24.36;43.94;100140.28;5057775;28;1941;-34
2022/09/12 04:32:57;;;;;;;;;;;;;;;24.50;43.06;100135.13;5057780;28;1083;-36
2022/09/12 04:35:22;;;;;;;;;;;;;;;24.23;43.97;100138.19;5046939;28;1195;-34
2022/09/12 04:37:48;;;;;;;;;;;;;;;24.19;44.32;100150.31;5057822;28;1072;-32
2022/09/12 04:40:13;;;;;;;;;;;;;;;24.34;44.03;100156.56;5054232;28;1013;-36
2022/09/12 04:42:38;;;;;;;;;;;;;;;24.06;44.76;100164.28;5057455;28;926;-34
2022/09/12 04:45:05;;;;;;;;;;;;;;;24.19;44.49;100150.31;5057411;28;953;-32
2022/09/12 04:47:30;;;;;;;;;;;;;;;23.99;45.30;100150.72;5056994;28;1008;-31
2022/09/12 04:49:55;;;;;;;;;;;;;;;24.12;44.86;100131.34;5057227;28;1898;-35
2022/09/12 04:52:20;;;;;;;;;;;;;;;24.39;44.46;100125.66;5053056;28;990;-38
2022/09/12 04:54:46;;;;;;;;;;;;;;;24.37;44.68;100151.88;5056989;28;1286;-33
2022/09/12 04:57:12;;;;;;;;;;;;;;;24.40;44.30;100167.63;5056796;28;977;-31
2022/09/12 04:59:37;;;;;;;;;;;;;;;24.68;44.37;100169.78;5049086;28;1291;-38
2022/09/12 05:02:02;;;;;;;;;;;;;;;24.83;43.87;100162.59;5056039;28;1111;-37
2022/09/12 05:04:28;;;;;;;;;;;;;;;24.96;43.82;100161.16;5049899;28;1191;-35
2022/09/12 05:06:53;;;;;;;;;;;;;;;25.15;43.35;100175.09;5056304;28;958;-38
2022/09/12 05:09:18;;;;;;;;;;;;;;;25.34;42.98;100173.72;5057047;28;1959;-39
2022/09/12 05:11:44;;;;;;;;;;;;;;;25.28;43.33;100175.31;5056386;28;1153;-38
2022/09/12 05:14:10;;;;;;;;;;;;;;;25.36;43.27;100177.06;5055465;28;1349;-37
2022/09/12 05:16:35;;;;;;;;;;;;;;;25.39;42.80;100168.63;5051905;28;1005;-38
2022/09/12 05:19:00;;;;;;;;;;;;;;;25.47;43.19;100162.31;5052736;28;1387;-38
2022/09/12 05:21:26;;;;;;;;;;;;;;;25.52;42.93;100159.06;5044134;28;1041;-38
2022/09/12 05:23:51;;;;;;;;;;;;;;;25.27;43.66;100152.13;5043772;28;981;-38
2022/09/12 05:26:19;;;;;;;;;;;;;;;25.15;43.88;100150.88;5048386;28;1016;-36
2022/09/12 05:28:44;;;;;;;;;;;;;;;24.90;43.60;100159.16;5050844;28;965;-39
2022/09/12 05:31:16;;;;;;;;;;;;;;;25.07;43.44;100158.00;5053433;28;1910;-35
2022/09/12 05:33:42;;;;;;;;;;;;;;;24.74;44.03;100158.28;5056189;28;977;-35
2022/09/12 05:36:15;;;;;;;;;;;;;;;24.33;45.33;100160.28;5056090;28;1036;-37
2022/09/12 05:38:41;;;;;;;;;;;;;;;24.40;45.58;100164.94;5051850;28;1452;-39
2022/09/12 05:41:07;;;;;;;;;;;;;;;24.48;45.55;100164.88;5050665;28;1452;-37
2022/09/12 05:43:32;;;;;;;;;;;;;;;24.56;45.49;100169.34;5056807;28;1060;-37
2022/09/12 05:46:01;;;;;;;;;;;;;;;24.54;45.58;100166.03;5051135;28;1357;-37
2022/09/12 05:48:27;;;;;;;;;;;;;;;24.64;45.32;100161.22;5056553;28;1010;-38
2022/09/12 05:50:58;;;;;;;;;;;;;;;24.58;45.72;100170.03;5055901;28;1961;-36
2022/09/12 05:53:27;;;;;;;;;;;;;;;24.60;44.25;100173.38;5045653;28;1016;-39
2022/09/12 05:56:00;;;;;;;;;;;;;;;24.79;44.11;100165.84;5052275;28;1818;-39
2022/09/12 05:58:25;;;;;;;;;;;;;;;24.79;43.54;100158.59;5052709;28;2416;-39
2022/09/12 06:00:51;;;;;;;;;;;;;;;24.77;44.08;100165.16;5041491;28;2188;-37
2022/09/12 06:03:16;;;;;;;;;;;;;;;24.60;44.52;100157.25;5051798;28;1995;-34
2022/09/12 06:05:41;;;;;;;;;;;;;;;24.81;43.54;100164.63;5048694;28;1881;-39
2022/09/12 06:08:07;;;;;;;;;;;;;;;24.54;44.57;100166.84;5044718;28;1907;-39
2022/09/12 06:10:34;;;;;;;;;;;;;;;24.63;44.93;100162.25;5050769;28;1993;-41
2022/09/12 06:12:59;;;;;;;;;;;;;;;24.82;44.23;100166.28;5052385;28;1000;-37
2022/09/12 06:15:24;;;;;;;;;;;;;;;24.98;43.83;100163.66;5048704;28;966;-40
2022/09/12 06:17:50;;;;;;;;;;;;;;;24.97;43.82;100165.53;5047930;28;1187;-38
2022/09/12 06:20:15;;;;;;;;;;;;;;;25.07;43.43;100154.50;5055213;28;1018;-40
2022/09/12 06:22:41;;;;;;;;;;;;;;;25.15;42.47;100156.25;5046285;28;1095;-40
2022/09/12 06:25:07;;;;;;;;;;;;;;;25.00;43.04;100159.78;5047686;28;961;-40
2022/09/12 06:27:33;;;;;;;;;;;;;;;25.00;42.81;100151.72;5049619;28;1068;-40
2022/09/12 06:29:58;;;;;;;;;;;;;;;25.06;42.74;100163.56;5045660;28;2021;-40
2022/09/12 06:32:23;;;;;;;;;;;;;;;25.07;43.02;100158.00;5052111;28;1040;-39
2022/09/12 06:34:49;;;;;;;;;;;;;;;25.16;42.88;100156.09;5050638;28;1127;-40
2022/09/12 06:37:15;;;;;;;;;;;;;;;25.33;42.10;100152.38;5053541;28;925;-41
2022/09/12 06:39:40;;;;;;;;;;;;;;;25.27;42.31;100154.81;5051634;28;1104;-41
2022/09/12 06:42:05;;;;;;;;;;;;;;;25.46;41.81;100157.13;5036963;28;1856;-41
2022/09/12 06:44:30;;;;;;;;;;;;;;;25.34;42.63;100156.75;5042895;28;1016;-41
2022/09/12 06:46:57;;;;;;;;;;;;;;;25.50;41.53;100163.78;5044477;28;1119;-41
2022/09/12 06:49:22;;;;;;;;;;;;;;;25.62;42.01;100162.31;5050170;28;1906;-41
2022/09/12 06:51:48;;;;;;;;;;;;;;;25.66;41.91;100152.84;5046277;28;1123;-40
2022/09/12 06:54:14;;;;;;;;;;;;;;;25.70;41.43;100152.47;5048347;28;883;-40
2022/09/12 06:56:39;;;;;;;;;;;;;;;25.77;40.67;100151.56;5046726;28;1107;-38
2022/09/12 06:59:05;;;;;;;;;;;;;;;25.90;40.89;100152.72;5042244;28;1325;-41
2022/09/12 07:01:31;;;;;;;;;;;;;;;25.93;40.02;100146.94;5047618;28;1131;-43
2022/09/12 07:03:58;;;;;;;;;;;;;;;25.86;40.16;100157.66;5042511;28;1103;-43
2022/09/12 07:06:25;;;;;;;;;;;;;;;26.04;40.14;100145.63;5046498;28;921;-42
2022/09/12 07:08:50;;;;;;;;;;;;;;;26.19;39.62;100150.13;5044783;28;973;-42
2022/09/12 07:11:15;;;;;;;;;;;;;;;26.13;39.14;100149.88;5043161;28;1906;-42
2022/09/12 07:13:41;;;;;;;;;;;;;;;26.41;37.93;100154.53;5044847;28;1310;-43
2022/09/12 07:16:06;;;;;;;;;;;;;;;26.58;38.00;100145.34;5035525;28;1203;-42
2022/09/12 07:18:32;;;;;;;;;;;;;;;26.59;38.00;100147.03;5046397;28;918;-43
2022/09/12 07:21:01;;;;;;;;;;;;;;;26.71;37.31;100144.63;5056732;28;1084;-43
2022/09/12 07:23:26;;;;;;;;;;;;;;;26.80;37.15;100142.59;5043262;28;1057;-42
2022/09/12 07:25:53;;;;;;;;;;;;;;;26.95;36.63;100147.91;5050768;28;938;-43
2022/09/12 07:28:18;;;;;;;;;;;;;;;26.72;37.28;100141.75;5043506;28;973;-41
2022/09/12 07:30:43;;;;;;;;;;;;;;;26.93;37.60;100152.66;5051757;28;2032;-42
2022/09/12 07:33:09;;;;;;;;;;;;;;;26.70;38.01;100149.19;5055523;28;1211;-43
2022/09/12 07:35:34;;;;;;;;;;;;;;;26.90;37.54;100153.91;5057477;28;1013;-42
2022/09/12 07:38:00;;;;;;;;;;;;;;;27.01;37.44;100152.50;5057838;28;1131;-41
2022/09/12 07:40:25;;;;;;;;;;;;;;;27.18;36.87;100150.38;5043251;28;1826;-41
2022/09/12 07:42:50;;;;;;;;;;;;;;;27.21;36.55;100152.69;5049710;28;888;-39
2022/09/12 07:45:16;;;;;;;;;;;;;;;27.20;37.08;100152.88;5049056;28;985;-40
2022/09/12 07:47:41;;;;;;;;;;;;;;;27.38;36.42;100146.97;5053822;28;993;-43
2022/09/12 07:50:06;;;;;;;;;;;;;;;27.46;36.41;100148.69;5050849;28;1910;-43
2022/09/12 07:52:32;;;;;;;;;;;;;;;27.52;35.86;100150.56;5053909;28;1298;-43
2022/09/12 07:54:57;;;;;;;;;;;;;;;27.42;36.22;100150.94;5044211;28;974;-40
2022/09/12 07:57:22;;;;;;;;;;;;;;;27.58;35.75;100147.06;5052723;28;989;-42
2022/09/12 07:59:48;;;;;;;;;;;;;;;27.74;35.42;100140.50;5047683;28;1139;-42
2022/09/12 08:02:14;;;;;;;;;;;;;;;27.84;34.87;100155.53;5054287;28;1013;-40
2022/09/12 08:04:40;;;;;;;;;;;;;;;27.80;34.68;100146.97;5054371;28;1032;-41
2022/09/12 08:07:06;;;;;;;;;;;;;;;28.14;34.22;100147.09;5050766;28;878;-40
2022/09/12 08:09:31;;;;;;;;;;;;;;;28.21;34.07;100139.78;5055123;28;1914;-40
2022/09/12 08:11:57;;;;;;;;;;;;;;;28.40;33.46;100142.78;5048219;28;2326;-41
2022/09/12 08:14:22;;;;;;;;;;;;;;;28.16;33.86;100149.59;5050849;28;1056;-41
2022/09/12 08:16:47;;;;;;;;;;;;;;;28.45;33.85;100143.00;5052668;28;1108;-40
2022/09/12 08:19:13;;;;;;;;;;;;;;;28.47;33.05;100142.78;5047553;28;1578;-42
2022/09/12 08:21:38;;;;;;;;;;;;;;;28.47;32.74;100140.91;5051060;28;1048;-41
2022/09/12 08:24:04;;;;;;;;;;;;;;;28.63;33.07;100141.53;5050862;28;1465;-42
2022/09/12 08:26:30;;;;;;;;;;;;;;;28.73;33.21;100135.69;5045009;28;1141;-41
2022/09/12 08:28:55;;;;;;;;;;;;;;;28.90;32.55;100140.69;5051102;28;1029;-42
2022/09/12 08:31:21;;;;;;;;;;;;;;;28.91;32.19;100142.38;5049191;28;1902;-43
2022/09/12 08:33:46;;;;;;;;;;;;;;;28.97;31.99;100138.84;5049358;28;1072;-41
2022/09/12 08:36:12;;;;;;;;;;;;;;;28.93;32.69;100129.44;5050175;28;954;-48
2022/09/12 08:38:38;;;;;;;;;;;;;;;28.85;32.42;100130.50;5050812;28;1151;-43
2022/09/12 08:41:23;;;;;;;;;;;;;;;28.70;32.49;100126.13;5048377;28;1833;-43
2022/09/12 08:43:55;;;;;;;;;;;;;;;28.66;32.57;100124.06;5043418;28;1215;-44
2022/09/12 08:46:23;;;;;;;;;;;;;;;28.93;32.29;100129.44;5047898;28;1266;-43
2022/09/12 08:48:49;;;;;;;;;;;;;;;28.63;32.78;100128.00;5053106;28;1187;-43
2022/09/12 08:51:15;;;;;;;;;;;;;;;28.59;32.70;100126.75;5048622;28;1959;-43
2022/09/12 08:53:40;;;;;;;;;;;;;;;28.57;32.51;100121.56;5042482;28;1092;-42
2022/09/12 08:56:07;;;;;;;;;;;;;;;28.35;33.31;100121.75;5054725;28;1211;-43
2022/09/12 08:58:34;;;;;;;;;;;;;;;28.70;31.67;100120.72;5044979;28;982;-43
2022/09/12 09:01:14;;;;;;;;;;;;;;;28.60;31.24;100123.00;5050596;28;937;-43
2022/09/12 09:03:46;;;;;;;;;;;;;;;28.65;30.57;100114.25;5041588;28;1032;-43
2022/09/12 09:06:31;;;;;;;;;;;;;;;28.72;30.49;100107.81;5054690;28;838;-44
2022/09/12 09:09:10;;;;;;;;;;;;;;;29.03;30.67;100105.50;5054214;28;1068;-43
2022/09/12 09:11:36;;;;;;;;;;;;;;;29.08;31.07;100104.84;5054332;28;2547;-43
2022/09/12 09:17:02;;;;;;;;;;;;;;;29.01;31.91;100095.94;5044589;28;1025;-43
2022/09/12 09:19:29;;;;;;;;;;;;;;;28.99;31.41;100100.72;5044846;28;1260;-42
2022/09/12 09:21:56;;;;;;;;;;;;;;;28.93;31.89;100094.22;5051674;28;1065;-43
2022/09/12 09:24:25;;;;;;;;;;;;;;;29.34;33.01;100087.69;5051549;28;1155;-43
2022/09/12 09:26:53;;;;;;;;;;;;;;;29.03;34.74;100085.72;5053025;28;1033;-43
2022/09/12 09:29:19;;;;;;;;;;;;;;;29.03;34.64;100083.03;5054052;28;1975;-42
2022/09/12 09:31:48;;;;;;;;;;;;;;;29.50;35.62;100093.66;5043202;28;1413;-43
2022/09/12 09:34:24;;;;;;;;;;;;;;;29.09;34.75;100080.28;5050642;28;1158;-43
2022/09/12 09:36:49;;;;;;;;;;;;;;;29.23;35.00;100071.28;5048144;28;1166;-42
2022/09/12 09:39:18;;;;;;;;;;;;;;;29.38;34.50;100073.72;5049044;28;1325;-42
2022/09/12 09:41:55;;;;;;;;;;;;;;;29.29;33.49;100083.97;5043000;28;2495;-42
2022/09/12 09:44:20;;;;;;;;;;;;;;;29.01;34.06;100085.91;5049771;28;1228;-43
2022/09/12 09:46:47;;;;;;;;;;;;;;;28.02;33.92;100071.16;5037933;28;986;-43
2022/09/12 09:49:13;;;;;;;;;;;;;;;28.85;32.10;100074.47;5047819;28;1906;-44
2022/09/12 09:51:39;;;;;;;;;;;;;;;29.27;31.38;100076.06;5047345;28;1012;-44
2022/09/12 09:54:07;;;;;;;;;;;;;;;29.68;30.60;100073.19;5047786;28;1221;-44
2022/09/12 09:56:33;;;;;;;;;;;;;;;29.51;31.58;100068.22;5049466;28;1203;-44
2022/09/12 09:59:17;;;;;;;;;;;;;;;29.94;29.59;100072.22;5053509;28;989;-44
2022/09/12 10:01:50;;;;;;;;;;;;;;;29.89;30.20;100063.91;5052697;28;1139;-44
2022/09/12 10:04:16;;;;;;;;;;;;;;;30.18;29.28;100077.03;5042254;28;1061;-45
2022/09/12 10:06:41;;;;;;;;;;;;;;;30.00;30.65;100066.94;5069233;28;1203;-44
2022/09/12 10:09:16;;;;;;;;;;;;;;;30.00;29.95;100075.06;5047788;28;1964;-44
2022/09/12 10:11:41;;;;;;;;;;;;;;;30.01;29.17;100066.72;5045942;28;2565;-44
2022/09/12 10:14:22;;;;;;;;;;;;;;;29.75;29.38;100070.44;5049015;28;976;-44
2022/09/12 10:16:51;;;;;;;;;;;;;;;29.99;29.01;100068.00;5038830;28;1164;-44
2022/09/12 10:19:21;;;;;;;;;;;;;;;30.05;28.65;100065.25;5051665;28;1040;-44
2022/09/12 10:21:47;;;;;;;;;;;;;;;29.88;28.29;100070.34;5053590;28;1055;-44
2022/09/12 10:24:23;;;;;;;;;;;;;;;30.12;28.39;100064.34;5042137;28;1156;-43
2022/09/12 10:27:04;;;;;;;;;;;;;;;30.21;29.21;100073.09;5053796;28;1075;-44
2022/09/12 10:29:30;;;;;;;;;;;;;;;30.12;29.58;100073.31;5044963;28;1910;-44
2022/09/12 10:32:03;;;;;;;;;;;;;;;30.01;29.88;100065.91;5046673;28;1015;-44
2022/09/12 10:34:36;;;;;;;;;;;;;;;30.05;29.16;100051.69;5045701;28;1390;-45
2022/09/12 10:37:05;;;;;;;;;;;;;;;30.02;29.06;100049.41;5049844;28;1283;-44
2022/09/12 10:39:32;;;;;;;;;;;;;;;30.21;27.62;100046.81;5049452;28;1034;-44
2022/09/12 10:41:57;;;;;;;;;;;;;;;30.31;26.86;100052.53;5045165;28;2362;-44
2022/09/12 10:44:25;;;;;;;;;;;;;;;29.74;27.53;100060.66;5046634;28;1119;-42
2022/09/12 10:46:50;;;;;;;;;;;;;;;29.44;28.02;100059.31;5048614;28;1461;-43
2022/09/12 10:49:20;;;;;;;;;;;;;;;29.72;27.55;100065.44;5049239;28;1957;-42
2022/09/12 10:51:45;;;;;;;;;;;;;;;29.73;27.46;100059.81;5052486;28;1474;-42
2022/09/12 10:54:11;;;;;;;;;;;;;;;29.62;27.97;100068.63;5046575;28;1497;-42
2022/09/12 10:56:43;;;;;;;;;;;;;;;30.09;27.08;100067.50;5037313;28;989;-42
2022/09/12 10:59:17;;;;;;;;;;;;;;;30.10;27.44;100069.16;5047615;28;1032;-43
2022/09/12 11:01:49;;;;;;;;;;;;;;;30.36;27.47;100064.63;5053451;28;1001;-43
2022/09/12 11:04:24;;;;;;;;;;;;;;;30.33;28.21;100063.16;5051559;28;1354;-42
2022/09/12 11:06:49;;;;;;;;;;;;;;;30.13;28.39;100063.31;5048121;28;977;-44
2022/09/12 11:09:17;;;;;;;;;;;;;;;30.09;27.99;100051.22;5052822;28;1898;-43
2022/09/12 11:11:45;;;;;;;;;;;;;;;30.29;27.25;100037.53;5046920;28;1772;-42
2022/09/12 11:14:21;;;;;;;;;;;;;;;30.38;27.79;100054.38;5046239;28;1182;-42
2022/09/12 11:16:53;;;;;;;;;;;;;;;30.62;26.96;100052.69;5050980;28;1196;-43
2022/09/12 11:19:21;;;;;;;;;;;;;;;30.21;26.64;100057.66;5051628;28;1056;-42
2022/09/12 11:21:59;;;;;;;;;;;;;;;30.15;26.56;100062.03;5050401;28;1337;-42
2022/09/12 11:24:30;;;;;;;;;;;;;;;30.00;26.03;100056.09;5057242;28;1262;-42
2022/09/12 11:27:14;;;;;;;;;;;;;;;29.79;25.39;100056.25;5053044;28;1084;-42
2022/09/12 11:29:53;;;;;;;;;;;;;;;29.95;25.43;100056.75;5057005;28;1965;-44
2022/09/12 11:32:30;;;;;;;;;;;;;;;30.02;26.40;100051.28;5044468;28;904;-43
2022/09/12 11:35:05;;;;;;;;;;;;;;;29.42;27.81;100064.97;5058086;28;1018;-41
2022/09/12 11:37:36;;;;;;;;;;;;;;;29.09;27.70;100055.91;5058462;28;989;-43
2022/09/12 11:40:05;;;;;;;;;;;;;;;29.63;26.75;100045.91;5058306;28;957;-43
2022/09/12 11:42:32;;;;;;;;;;;;;;;29.56;27.79;100049.44;5055087;28;2069;-44
2022/09/12 11:45:03;;;;;;;;;;;;;;;29.39;27.86;100041.00;5058166;28;1016;-44
2022/09/12 11:47:28;;;;;;;;;;;;;;;29.33;28.27;100037.28;5056959;28;1005;-41
2022/09/12 11:49:53;;;;;;;;;;;;;;;29.42;27.45;100045.16;5057816;28;1889;-44
2022/09/12 11:52:19;;;;;;;;;;;;;;;29.69;27.33;100040.47;5058074;28;1217;-44
2022/09/12 11:54:47;;;;;;;;;;;;;;;30.25;26.16;100039.03;5055081;28;1454;-44
2022/09/12 11:57:18;;;;;;;;;;;;;;;30.23;27.15;100039.25;5048631;28;1234;-44
2022/09/12 11:59:53;;;;;;;;;;;;;;;30.16;26.90;100033.03;5048212;28;1224;-44
2022/09/12 12:02:26;;;;;;;;;;;;;;;30.25;25.78;100029.00;5052529;28;1400;-41
2022/09/12 12:05:03;;;;;;;;;;;;;;;30.16;25.42;100036.56;5051952;28;1072;-41
2022/09/12 12:07:30;;;;;;;;;;;;;;;30.02;25.45;100037.72;5051847;28;1183;-43
2022/09/12 12:09:55;;;;;;;;;;;;;;;30.17;24.79;100045.53;5048086;28;1894;-41
2022/09/12 12:12:23;;;;;;;;;;;;;;;29.92;25.09;100041.75;5048529;28;2222;-44
2022/09/12 12:14:49;;;;;;;;;;;;;;;30.50;24.49;100044.44;5051666;28;1037;-41
2022/09/12 12:17:23;;;;;;;;;;;;;;;30.25;26.08;100039.88;5050090;28;1045;-42
2022/09/12 12:19:58;;;;;;;;;;;;;;;30.22;26.77;100037.59;5047387;28;1171;-41
2022/09/12 12:22:24;;;;;;;;;;;;;;;30.02;26.92;100025.00;5050650;28;1187;-41
2022/09/12 12:25:08;;;;;;;;;;;;;;;29.43;26.82;100023.25;5043871;28;1056;-41
2022/09/12 12:27:46;;;;;;;;;;;;;;;29.73;25.40;100040.03;5053941;28;1183;-43
2022/09/12 12:30:30;;;;;;;;;;;;;;;29.53;25.50;100039.03;5051785;28;1910;-43
2022/09/12 12:32:59;;;;;;;;;;;;;;;29.62;25.34;100033.41;5048280;28;962;-43
2022/09/12 12:35:37;;;;;;;;;;;;;;;29.92;25.02;100030.91;5050004;28;1183;-43
2022/09/12 12:38:03;;;;;;;;;;;;;;;29.18;25.68;100032.13;5052264;28;2455;-43
2022/09/12 12:40:28;;;;;;;;;;;;;;;29.05;26.38;100030.31;5050210;28;2056;-43
2022/09/12 12:43:00;;;;;;;;;;;;;;;29.11;26.60;100031.34;5051676;28;1825;-44
2022/09/12 12:45:25;;;;;;;;;;;;;;;29.43;25.66;100031.38;5044414;28;1942;-41
2022/09/12 12:47:54;;;;;;;;;;;;;;;29.37;26.23;100029.53;5050387;28;2095;-41
2022/09/12 12:50:22;;;;;;;;;;;;;;;29.45;26.25;100032.00;5041028;28;1898;-41
2022/09/12 12:52:49;;;;;;;;;;;;;;;29.67;25.49;100039.00;5048195;28;1083;-43
2022/09/12 12:55:25;;;;;;;;;;;;;;;30.10;24.76;100044.75;5052220;28;1108;-41